Monday, August 20, 2018, 8:00 PM EDT
Back to Local

KSMQ, Somerville Somerset Airport

Location: Bedminster, NJ, United States Lat: 40.617
Local Time: 8:00 PM EDT ( 0:00 GMT) Lon: -74.667
Time Zone: US/Eastern Elev: 104 ft

Show me the last for .
Show Decoded

2018-08-20 18:53 METAR KSMQ 202253Z AUTO 00000KT 10SM OVC048 23/19 A3010 RMK AO2 SLP192 T02280189
                 =
2018-08-20 17:53 METAR KSMQ 202153Z AUTO 00000KT 10SM BKN048 23/18 A3010 RMK AO2 SLP192 T02330183
                 =
2018-08-20 16:53 METAR KSMQ 202053Z AUTO VRB03KT 10SM FEW027 FEW050 24/18 A3010 RMK AO2 SLP191
                 T02390178 57012 =
2018-08-20 15:53 METAR KSMQ 201953Z AUTO VRB05KT 10SM SCT027 SCT050 25/18 A3011 RMK AO2 SLP194
                 T02500183 =
2018-08-20 14:53 METAR KSMQ 201853Z AUTO 08004KT 10SM FEW026 BKN048 OVC070 25/18 A3012 RMK AO2
                 SLP200 T02500183 =
2018-08-20 13:53 METAR KSMQ 201753Z AUTO 07006KT 10SM OVC046 24/18 A3013 RMK AO2 SLP203 T02390178
                 10244 20206 52004 =
2018-08-20 12:53 METAR KSMQ 201653Z AUTO 06005KT 10SM OVC038 23/17 A3013 RMK AO2 SLP201 T02330172
                 =
2018-08-20 11:53 METAR KSMQ 201553Z AUTO VRB03KT 10SM SCT030 OVC037 23/17 A3012 RMK AO2 SLP200
                 T02330172 =
2018-08-20 10:53 METAR KSMQ 201453Z AUTO 03007KT 10SM SCT025 OVC032 23/17 A3012 RMK AO2 SLP199
                 T02330167 50002 =
2018-08-20 10:26 METAR KSMQ 201426Z AUTO 06004KT 10SM SCT024 BKN030 OVC034 23/17 A3013 RMK AO2
                 T02280167 =
2018-08-20 09:53 METAR KSMQ 201353Z AUTO 07004KT 10SM BKN024 BKN085 22/17 A3014 RMK AO2 SLP204
                 T02170167 =
2018-08-20 08:53 METAR KSMQ 201253Z AUTO 05004KT 10SM BKN085 21/17 A3011 RMK AO2 SLP197 T02110167
                 =
2018-08-20 07:53 METAR KSMQ 201153Z AUTO 00000KT 10SM BKN085 21/16 A3011 RMK AO2 SLP197 T02060161
                 10206 20189 53006 =
2018-08-20 06:53 METAR KSMQ 201053Z AUTO 10SM OVC080 19/17 A3011 RMK AO2 SLP195 T01890167 =
2018-08-20 05:53 METAR KSMQ 200953Z AUTO 00000KT 10SM OVC085 19/16 A3010 RMK AO2 SLP192 T01890161
                 =
2018-08-20 04:53 METAR KSMQ 200853Z AUTO 00000KT 10SM BKN080 OVC090 19/17 A3010 RMK AO2 SLP191
                 T01940172 53008 =
2018-08-20 03:53 METAR KSMQ 200753Z AUTO 00000KT 9SM OVC085 19/18 A3008 RMK AO2 SLP184 T01890183
                 =
2018-08-20 02:53 METAR KSMQ 200653Z AUTO 00000KT 4SM BR OVC085 19/18 A3007 RMK AO2 SLP182
                 T01890183 =
2018-08-20 01:53 METAR KSMQ 200553Z AUTO 00000KT 9SM OVC049 20/19 A3007 RMK AO2 SLP183 60000
                 T02000189 10217 20194 56001 =
2018-08-20 00:53 METAR KSMQ 200453Z AUTO 00000KT 10SM OVC036 21/19 A3007 RMK AO2 SLP183 T02060189
                 402330200 =
2018-08-20 00:11 METAR KSMQ 200411Z AUTO VRB03KT 10SM BKN030 OVC034 21/18 A3008 RMK AO2 T02060183
                 =
2018-08-19 23:53 METAR KSMQ 200353Z AUTO 00000KT 6SM BR OVC026 20/19 A3007 RMK AO2 RAB05E22B39E49
                 SLP183 P0000 T02000189 =
2018-08-19 23:49 METAR KSMQ 200349Z AUTO 00000KT 7SM BKN024 OVC033 21/19 A3008 RMK AO2
                 RAB05E22B39E49 P0000 =
2018-08-19 22:53 METAR KSMQ 200253Z AUTO 00000KT 10SM SCT043 OVC050 21/20 A3007 RMK AO2 SLP181
                 T02060200 51014 =
2018-08-19 21:53 METAR KSMQ 200153Z AUTO 00000KT 10SM OVC050 21/19 A3006 RMK AO2 SLP178 T02060194
                 =
2018-08-19 20:53 METAR KSMQ 200053Z AUTO 00000KT 10SM OVC047 21/19 A3004 RMK AO2 SLP172 T02110189
                 =

Support USWX by starting your Amazon purchase here.